createdAt,value
2017-07-21T00:01:14.014Z,2.60
2017-07-21T00:03:41.490Z,2.50
2017-07-21T00:06:08.950Z,2.70
2017-07-21T00:08:36.413Z,2.77
2017-07-21T00:11:03.890Z,2.30
2017-07-21T00:13:31.342Z,2.83
2017-07-21T00:18:51.494Z,2.50
2017-07-21T00:21:18.972Z,2.20
2017-07-21T00:23:46.456Z,2.63
2017-07-21T00:26:13.948Z,2.47
2017-07-21T00:28:41.397Z,2.10
2017-07-21T00:31:08.887Z,2.80
2017-07-21T00:33:36.392Z,2.10
2017-07-21T00:36:03.867Z,3.17
2017-07-21T00:38:31.341Z,2.43
2017-07-21T00:40:58.790Z,3.00
2017-07-21T00:43:26.272Z,2.27
2017-07-21T00:45:53.741Z,2.97
2017-07-21T00:48:21.204Z,2.70
2017-07-21T00:50:49.420Z,1.90
2017-07-21T00:53:17.511Z,1.90
2017-07-21T00:55:44.956Z,2.10
2017-07-21T00:58:12.426Z,2.33
2017-07-21T01:00:39.868Z,1.90
2017-07-21T01:03:07.334Z,2.47
2017-07-21T01:05:34.789Z,1.50
2017-07-21T01:08:02.282Z,2.07
2017-07-21T01:10:29.723Z,1.87
2017-07-21T01:12:57.206Z,2.03
2017-07-21T01:15:24.657Z,2.17
2017-07-21T01:17:52.126Z,2.10
2017-07-21T01:20:20.352Z,2.10
2017-07-21T01:22:47.874Z,1.90
2017-07-21T01:25:15.337Z,1.83
2017-07-21T01:27:42.793Z,2.00
2017-07-21T01:30:10.253Z,1.90
2017-07-21T01:32:37.741Z,2.20
2017-07-21T01:35:05.289Z,1.60
2017-07-21T01:37:32.759Z,1.90
2017-07-21T01:40:00.235Z,1.80
2017-07-21T01:42:27.706Z,1.73
2017-07-21T01:44:55.180Z,1.83
2017-07-21T01:47:22.649Z,1.50
2017-07-21T01:49:50.125Z,2.10
2017-07-21T01:52:17.577Z,1.90
2017-07-21T01:54:45.056Z,1.87
2017-07-21T01:57:12.541Z,1.57
2017-07-21T01:59:40.006Z,1.80
2017-07-21T02:02:07.483Z,1.73
2017-07-21T02:04:34.942Z,1.90
2017-07-21T02:07:03.183Z,1.93
2017-07-21T02:09:30.631Z,1.70
2017-07-21T02:11:58.090Z,1.83
2017-07-21T02:14:25.539Z,1.77
2017-07-21T02:16:53.074Z,1.93
2017-07-21T02:19:20.542Z,1.63
2017-07-21T02:21:48.005Z,1.73
2017-07-21T02:24:16.247Z,1.67
2017-07-21T02:26:43.730Z,1.83
2017-07-21T02:29:11.209Z,2.20
2017-07-21T02:31:38.669Z,1.77
2017-07-21T02:34:06.123Z,1.60
2017-07-21T02:36:33.601Z,1.57
2017-07-21T02:39:01.078Z,1.40
2017-07-21T02:41:28.543Z,1.83
2017-07-21T02:43:56.010Z,1.77
2017-07-21T02:46:23.468Z,2.40
2017-07-21T02:48:50.937Z,1.73
2017-07-21T02:51:18.391Z,1.60
2017-07-21T02:53:45.879Z,1.90
2017-07-21T02:56:13.354Z,1.70
2017-07-21T02:58:40.824Z,1.87
2017-07-21T03:01:08.294Z,1.80
2017-07-21T03:03:36.545Z,1.60
2017-07-21T03:06:04.010Z,1.70
2017-07-21T03:08:31.478Z,1.60
2017-07-21T03:10:58.937Z,1.70
2017-07-21T03:13:27.154Z,1.47
2017-07-21T03:15:54.638Z,1.70
2017-07-21T03:18:22.106Z,1.80
2017-07-21T03:20:49.564Z,1.33
2017-07-21T03:23:22.960Z,1.47
2017-07-21T03:25:50.448Z,1.50
2017-07-21T03:28:18.662Z,1.63
2017-07-21T03:30:46.125Z,1.80
2017-07-21T03:33:13.578Z,1.70
2017-07-21T03:35:41.071Z,1.50
2017-07-21T03:38:08.534Z,1.60
2017-07-21T03:40:35.989Z,1.50
2017-07-21T03:43:03.465Z,1.67
2017-07-21T03:45:30.944Z,1.70
2017-07-21T03:47:58.425Z,1.73
2017-07-21T03:50:25.883Z,1.67
2017-07-21T03:52:53.358Z,1.70
2017-07-21T03:55:20.819Z,2.20
2017-07-21T03:57:48.286Z,1.57
2017-07-21T04:00:15.725Z,2.20
2017-07-21T04:02:43.187Z,1.83
2017-07-21T04:05:10.636Z,1.80
2017-07-21T04:07:38.129Z,1.90
2017-07-21T04:10:05.768Z,1.83
2017-07-21T04:12:33.284Z,1.57
2017-07-21T04:15:00.764Z,1.77
2017-07-21T04:17:28.226Z,1.47
2017-07-21T04:19:55.686Z,1.57
2017-07-21T04:22:23.142Z,1.90
2017-07-21T04:24:50.597Z,2.00
2017-07-21T04:27:18.071Z,2.40
2017-07-21T04:29:45.543Z,1.50
2017-07-21T04:32:13.008Z,1.73
2017-07-21T04:34:40.996Z,1.80
2017-07-21T04:37:08.471Z,1.77
2017-07-21T04:39:35.928Z,1.73
2017-07-21T04:42:03.381Z,2.17
2017-07-21T04:44:30.856Z,1.50
2017-07-21T04:46:58.340Z,1.63
2017-07-21T04:49:25.830Z,1.60
2017-07-21T04:51:54.055Z,1.60
2017-07-21T04:54:21.526Z,1.43
2017-07-21T04:56:49.015Z,1.40
2017-07-21T04:59:16.545Z,1.40
2017-07-21T05:01:44.009Z,1.90
2017-07-21T05:04:11.466Z,1.97
2017-07-21T05:06:38.923Z,1.63
2017-07-21T05:09:06.385Z,1.77
2017-07-21T05:11:33.855Z,1.60
2017-07-21T05:14:01.329Z,1.90
2017-07-21T05:16:29.558Z,1.57
2017-07-21T05:18:57.012Z,1.67
2017-07-21T05:21:24.495Z,2.30
2017-07-21T05:23:51.964Z,1.60
2017-07-21T05:26:19.446Z,1.77
2017-07-21T05:28:46.923Z,1.67
2017-07-21T05:31:14.389Z,1.93
2017-07-21T05:33:41.837Z,1.30
2017-07-21T05:36:09.312Z,1.50
2017-07-21T05:38:36.769Z,1.40
2017-07-21T05:41:04.219Z,1.50
2017-07-21T05:43:31.697Z,1.50
2017-07-21T05:45:59.145Z,1.50
2017-07-21T05:48:26.654Z,1.60
2017-07-21T05:50:54.108Z,1.50
2017-07-21T05:53:21.561Z,1.43
2017-07-21T05:55:49.054Z,1.43
2017-07-21T05:58:16.533Z,1.43
2017-07-21T06:00:43.982Z,1.67
2017-07-21T06:03:11.450Z,1.50
2017-07-21T06:05:38.889Z,1.37
2017-07-21T06:08:06.380Z,1.70
2017-07-21T06:10:33.841Z,1.67
2017-07-21T06:13:01.577Z,1.77
2017-07-21T06:15:29.037Z,1.60
2017-07-21T06:17:56.490Z,1.70
2017-07-21T06:20:24.754Z,1.60
2017-07-21T06:22:52.236Z,1.73
2017-07-21T06:25:19.700Z,1.43
2017-07-21T06:27:47.179Z,1.63
2017-07-21T06:30:14.658Z,1.40
2017-07-21T06:32:42.113Z,1.43
2017-07-21T06:35:09.605Z,1.50
2017-07-21T06:37:37.061Z,1.57
2017-07-21T06:40:04.524Z,1.70
2017-07-21T06:42:31.967Z,1.50
2017-07-21T06:44:59.471Z,1.80
2017-07-21T06:47:27.010Z,1.60
2017-07-21T06:49:54.481Z,1.50
2017-07-21T06:52:21.946Z,1.83
2017-07-21T06:54:49.426Z,1.60
2017-07-21T06:57:17.667Z,1.50
2017-07-21T06:59:45.130Z,1.63
2017-07-21T07:02:12.593Z,1.43
2017-07-21T07:04:40.040Z,1.50
2017-07-21T07:07:07.497Z,1.37
2017-07-21T07:09:34.960Z,1.40
2017-07-21T07:12:02.446Z,1.40
2017-07-21T07:14:29.913Z,1.43
2017-07-21T07:16:58.142Z,1.20
2017-07-21T07:19:25.599Z,1.50
2017-07-21T07:21:53.094Z,1.57
2017-07-21T07:24:20.551Z,1.70
2017-07-21T07:26:48.778Z,1.47
2017-07-21T07:29:16.268Z,1.17
2017-07-21T07:31:43.741Z,1.27
2017-07-21T07:34:11.202Z,1.40
2017-07-21T07:36:38.709Z,1.37
2017-07-21T07:39:06.194Z,1.50
2017-07-21T07:41:33.655Z,1.47
2017-07-21T07:44:01.118Z,1.47
2017-07-21T07:46:28.607Z,1.73
2017-07-21T07:48:56.058Z,1.90
2017-07-21T07:51:23.515Z,1.80
2017-07-21T07:53:50.997Z,1.63
2017-07-21T07:56:18.463Z,1.97
2017-07-21T07:58:45.945Z,1.57
2017-07-21T08:01:13.400Z,1.90
2017-07-21T08:03:40.901Z,1.50
2017-07-21T08:06:08.360Z,1.67
2017-07-21T08:08:35.823Z,1.93
2017-07-21T08:11:03.284Z,2.00
2017-07-21T08:13:30.773Z,1.70
2017-07-21T08:15:58.311Z,1.50
2017-07-21T08:18:25.742Z,1.80
2017-07-21T08:20:53.994Z,1.70
2017-07-21T08:23:21.453Z,1.50
2017-07-21T08:25:48.977Z,2.00
2017-07-21T08:28:16.440Z,2.00
2017-07-21T08:30:44.081Z,1.80
2017-07-21T08:33:11.545Z,1.77
2017-07-21T08:35:39.042Z,1.70
2017-07-21T08:38:06.494Z,1.83
2017-07-21T08:40:34.002Z,2.03
2017-07-21T08:43:01.457Z,1.60
2017-07-21T08:45:28.940Z,1.47
2017-07-21T08:47:56.398Z,1.90
2017-07-21T08:50:23.870Z,1.33
2017-07-21T08:52:51.383Z,1.57
2017-07-21T08:55:18.846Z,1.70
2017-07-21T08:57:46.319Z,1.50
2017-07-21T09:00:13.769Z,1.50
2017-07-21T09:02:41.271Z,1.60
2017-07-21T09:05:08.717Z,1.40
2017-07-21T09:07:36.190Z,1.30
2017-07-21T09:10:03.662Z,1.77
2017-07-21T09:12:31.130Z,1.33
2017-07-21T09:14:58.613Z,1.70
2017-07-21T09:17:26.107Z,1.57
2017-07-21T09:19:53.593Z,1.60
2017-07-21T09:22:21.055Z,1.83
2017-07-21T09:24:48.601Z,1.50
2017-07-21T09:27:16.056Z,1.40
2017-07-21T09:29:43.540Z,1.50
2017-07-21T09:32:11.017Z,1.40
2017-07-21T09:34:38.517Z,1.60
2017-07-21T09:37:05.962Z,1.70
2017-07-21T09:39:33.450Z,1.80
2017-07-21T09:42:00.893Z,1.50
2017-07-21T09:44:28.360Z,1.33
2017-07-21T09:46:55.811Z,1.63
2017-07-21T09:49:23.292Z,1.40
2017-07-21T09:51:50.753Z,1.53
2017-07-21T09:54:18.209Z,1.63
2017-07-21T09:56:46.436Z,1.47
2017-07-21T09:59:13.890Z,1.93
2017-07-21T10:01:41.351Z,1.30
2017-07-21T10:04:08.812Z,1.70
2017-07-21T10:06:36.285Z,1.60
2017-07-21T10:09:03.759Z,1.53
2017-07-21T10:11:31.232Z,1.50
2017-07-21T10:13:58.694Z,1.50
2017-07-21T10:16:26.188Z,1.60
2017-07-21T10:18:53.648Z,1.40
2017-07-21T10:21:21.104Z,1.33
2017-07-21T10:23:48.717Z,1.50
2017-07-21T10:26:16.180Z,1.90
2017-07-21T10:28:43.787Z,1.67
2017-07-21T10:31:11.237Z,1.50
2017-07-21T10:33:38.749Z,1.50
2017-07-21T10:36:06.961Z,1.70
2017-07-21T10:38:34.430Z,1.30
2017-07-21T10:41:01.886Z,1.33
2017-07-21T10:43:29.354Z,1.30
2017-07-21T10:45:56.811Z,1.27
2017-07-21T10:48:24.310Z,1.40
2017-07-21T10:50:51.789Z,1.30
2017-07-21T10:53:19.254Z,1.47
2017-07-21T10:55:46.722Z,1.07
2017-07-21T10:58:14.191Z,1.10
2017-07-21T11:00:41.661Z,1.30
2017-07-21T11:03:09.412Z,1.23
2017-07-21T11:05:36.923Z,1.30
2017-07-21T11:08:04.384Z,1.30
2017-07-21T11:10:32.632Z,1.10
2017-07-21T11:13:00.089Z,1.33
2017-07-21T11:15:27.554Z,0.90
2017-07-21T11:17:55.021Z,1.07
2017-07-21T11:20:22.515Z,1.10
2017-07-21T11:22:49.966Z,1.07
2017-07-21T11:25:17.454Z,1.17
2017-07-21T11:27:44.909Z,1.10
2017-07-21T11:30:12.412Z,1.30
2017-07-21T11:32:39.884Z,0.90
2017-07-21T11:35:07.335Z,1.07
2017-07-21T11:37:34.800Z,1.03
2017-07-21T11:40:02.277Z,1.00
2017-07-21T11:42:29.759Z,1.10
2017-07-21T11:44:57.223Z,1.13
2017-07-21T11:47:24.684Z,0.93
2017-07-21T11:49:52.145Z,1.10
2017-07-21T11:52:19.629Z,1.20
2017-07-21T11:54:47.166Z,1.10
2017-07-21T11:57:14.646Z,1.50
2017-07-21T11:59:42.122Z,1.20
2017-07-21T12:02:09.614Z,1.50
2017-07-21T12:04:37.069Z,1.17
2017-07-21T12:07:04.529Z,1.30
2017-07-21T12:09:32.026Z,1.60
2017-07-21T12:11:59.494Z,1.30
2017-07-21T12:14:26.984Z,1.60
2017-07-21T12:16:54.425Z,1.20
2017-07-21T12:19:21.916Z,1.20
2017-07-21T12:21:49.393Z,1.50
2017-07-21T12:24:16.854Z,1.00
2017-07-21T12:26:44.315Z,1.00
2017-07-21T12:29:11.800Z,1.37
2017-07-21T12:31:39.249Z,1.17
2017-07-21T12:34:06.850Z,1.30
2017-07-21T12:36:34.390Z,1.50
2017-07-21T12:39:01.862Z,1.30
2017-07-21T12:41:29.346Z,0.90
2017-07-21T12:43:56.814Z,1.17
2017-07-21T12:46:24.292Z,1.00
2017-07-21T12:48:51.738Z,1.20
2017-07-21T12:51:19.193Z,1.00
2017-07-21T12:53:46.663Z,1.00
2017-07-21T12:56:14.122Z,1.10
2017-07-21T12:58:41.605Z,1.07
2017-07-21T13:01:09.061Z,1.10
2017-07-21T13:03:36.518Z,0.90
2017-07-21T13:06:03.989Z,0.90
2017-07-21T13:08:31.465Z,1.10
2017-07-21T13:10:58.948Z,1.07
2017-07-21T13:13:26.412Z,0.90
2017-07-21T13:15:53.874Z,1.00
2017-07-21T13:18:21.340Z,1.00
2017-07-21T13:20:48.807Z,1.00
2017-07-21T13:23:16.271Z,1.30
2017-07-21T13:25:44.514Z,1.20
2017-07-21T13:28:11.991Z,1.13
2017-07-21T13:30:39.445Z,1.10
2017-07-21T13:33:06.915Z,1.20
2017-07-21T13:35:34.376Z,1.00
2017-07-21T13:38:01.855Z,1.17
2017-07-21T13:40:29.321Z,1.40
2017-07-21T13:42:56.771Z,1.00
2017-07-21T13:45:24.235Z,0.97
2017-07-21T13:47:51.691Z,1.03
2017-07-21T13:50:19.198Z,1.10
2017-07-21T13:52:46.645Z,1.07
2017-07-21T13:55:14.108Z,1.00
2017-07-21T13:57:41.582Z,1.07
2017-07-21T14:00:09.053Z,0.93
2017-07-21T14:02:36.509Z,0.93
2017-07-21T14:05:03.966Z,1.27
2017-07-21T14:07:31.422Z,0.90
2017-07-21T14:09:58.901Z,1.10
2017-07-21T14:12:26.362Z,1.30
2017-07-21T14:14:53.831Z,1.03
2017-07-21T14:17:21.318Z,1.10
2017-07-21T14:19:48.782Z,1.10
2017-07-21T14:22:16.284Z,0.97
2017-07-21T14:24:43.746Z,1.00
2017-07-21T14:27:11.316Z,1.10
2017-07-21T14:29:38.825Z,1.10
2017-07-21T14:32:06.358Z,1.23
2017-07-21T14:34:33.843Z,1.30
2017-07-21T14:37:01.320Z,1.30
2017-07-21T14:39:28.774Z,1.20
2017-07-21T14:41:56.230Z,1.20
2017-07-21T14:44:23.694Z,1.30
2017-07-21T14:46:51.958Z,1.27
2017-07-21T14:49:19.472Z,1.27
2017-07-21T14:51:46.917Z,1.27
2017-07-21T14:54:14.364Z,1.30
2017-07-21T14:56:41.823Z,1.20
2017-07-21T14:59:09.294Z,1.40
2017-07-21T15:01:36.736Z,1.30
2017-07-21T15:04:04.222Z,1.67
2017-07-21T15:06:31.673Z,1.00
2017-07-21T15:08:59.143Z,1.10
2017-07-21T15:11:26.604Z,1.13
2017-07-21T15:13:54.094Z,1.20
2017-07-21T15:16:21.558Z,1.30
2017-07-21T15:18:49.015Z,1.50
2017-07-21T15:21:16.480Z,1.20
2017-07-21T15:23:43.942Z,1.23
2017-07-21T15:26:11.553Z,1.30
2017-07-21T15:28:39.012Z,1.10
2017-07-21T15:31:06.470Z,1.30
2017-07-21T15:33:33.935Z,1.37
2017-07-21T15:36:01.431Z,1.30
2017-07-21T15:38:28.882Z,1.50
2017-07-21T15:40:56.368Z,1.00
2017-07-21T15:43:23.863Z,1.40
2017-07-21T15:45:51.321Z,1.40
2017-07-21T15:48:18.782Z,1.50
2017-07-21T15:50:46.268Z,1.33
2017-07-21T15:53:13.733Z,1.20
2017-07-21T15:55:41.259Z,1.20
2017-07-21T15:58:08.707Z,1.13
2017-07-21T16:00:36.161Z,1.60
2017-07-21T16:03:03.626Z,1.20
2017-07-21T16:05:31.118Z,1.30
2017-07-21T16:07:58.620Z,1.33
2017-07-21T16:10:26.089Z,1.30
2017-07-21T16:12:53.561Z,1.20
2017-07-21T16:15:21.019Z,1.30
2017-07-21T16:17:48.473Z,1.20
2017-07-21T16:20:15.926Z,1.20
2017-07-21T16:22:43.412Z,1.50
2017-07-21T16:25:10.857Z,1.20
2017-07-21T16:27:38.356Z,1.30
2017-07-21T16:30:05.811Z,1.17
2017-07-21T16:32:33.284Z,1.50
2017-07-21T16:35:00.769Z,1.27
2017-07-21T16:37:28.223Z,1.30
2017-07-21T16:39:55.689Z,1.20
2017-07-21T16:42:23.153Z,1.30
2017-07-21T16:44:50.668Z,1.40
2017-07-21T16:47:18.145Z,1.40
2017-07-21T16:49:45.613Z,1.27
2017-07-21T16:52:13.273Z,1.60
2017-07-21T16:54:40.746Z,1.33
2017-07-21T16:57:08.239Z,1.30
2017-07-21T16:59:36.428Z,1.33
2017-07-21T17:02:03.918Z,1.50
2017-07-21T17:04:31.440Z,1.63
2017-07-21T17:06:58.911Z,1.20
2017-07-21T17:09:26.367Z,1.10
2017-07-21T17:11:53.833Z,1.20
2017-07-21T17:14:21.308Z,1.20
2017-07-21T17:16:48.795Z,1.33
2017-07-21T17:19:16.241Z,1.50
2017-07-21T17:21:43.696Z,1.30
2017-07-21T17:24:11.189Z,1.40
2017-07-21T17:26:38.674Z,1.53
2017-07-21T17:29:06.142Z,1.10
2017-07-21T17:31:33.602Z,1.33
2017-07-21T17:34:01.066Z,1.43
2017-07-21T17:36:28.537Z,1.40
2017-07-21T17:38:55.997Z,1.53
2017-07-21T17:41:23.458Z,1.30
2017-07-21T17:43:50.974Z,1.80
2017-07-21T17:46:18.458Z,1.40
2017-07-21T17:48:45.916Z,1.20
2017-07-21T17:51:13.372Z,1.33
2017-07-21T17:53:40.825Z,1.40
2017-07-21T17:56:08.278Z,1.20
2017-07-21T17:58:35.751Z,1.30
2017-07-21T18:01:03.237Z,1.43
2017-07-21T18:03:30.685Z,1.30
2017-07-21T18:05:58.165Z,1.50
2017-07-21T18:08:25.645Z,1.33
2017-07-21T18:10:53.134Z,1.20
2017-07-21T18:13:20.579Z,1.40
2017-07-21T18:15:48.038Z,1.20
2017-07-21T18:18:15.501Z,1.33
2017-07-21T18:20:42.950Z,1.30
2017-07-21T18:23:10.438Z,1.37
2017-07-21T18:25:37.912Z,1.50
2017-07-21T18:28:05.389Z,1.30
2017-07-21T18:30:32.844Z,1.33
2017-07-21T18:33:00.391Z,1.43
2017-07-21T18:35:27.891Z,1.40
2017-07-21T18:37:55.391Z,1.30
2017-07-21T18:40:22.891Z,1.50
2017-07-21T18:42:50.364Z,1.23
2017-07-21T18:45:17.826Z,1.40
2017-07-21T18:47:45.322Z,1.30
2017-07-21T18:50:12.807Z,1.27
2017-07-21T18:52:40.276Z,1.50
2017-07-21T18:55:07.733Z,1.47
2017-07-21T18:57:35.192Z,1.30
2017-07-21T19:00:02.680Z,1.53
2017-07-21T19:02:30.152Z,1.50
2017-07-21T19:04:57.621Z,1.23
2017-07-21T19:07:25.065Z,1.53
2017-07-21T19:09:52.538Z,1.50
2017-07-21T19:12:20.030Z,1.30
2017-07-21T19:14:47.519Z,1.40
2017-07-21T19:17:14.979Z,1.57
2017-07-21T19:19:42.442Z,1.33
2017-07-21T19:22:09.908Z,1.70
2017-07-21T19:24:37.382Z,1.40
2017-07-21T19:27:04.837Z,1.30
2017-07-21T19:29:32.306Z,1.67
2017-07-21T19:31:59.780Z,1.37
2017-07-21T19:34:27.279Z,1.60
2017-07-21T19:36:54.721Z,1.50
2017-07-21T19:39:22.196Z,1.47
2017-07-21T19:41:49.665Z,1.50
2017-07-21T19:44:17.121Z,1.53
2017-07-21T19:46:44.585Z,1.20
2017-07-21T19:49:12.044Z,1.50
2017-07-21T19:51:39.510Z,1.40
2017-07-21T19:54:06.970Z,1.33
2017-07-21T19:56:34.448Z,1.50
2017-07-21T19:59:01.908Z,1.27
2017-07-21T20:01:29.405Z,1.50
2017-07-21T20:03:56.877Z,1.40
2017-07-21T20:06:24.329Z,1.47
2017-07-21T20:08:51.791Z,1.47
2017-07-21T20:11:19.278Z,1.40
2017-07-21T20:13:46.762Z,1.37
2017-07-21T20:16:14.239Z,1.50
2017-07-21T20:18:41.697Z,1.40
2017-07-21T20:21:09.160Z,1.37
2017-07-21T20:23:36.637Z,1.50
2017-07-21T20:26:04.090Z,1.53
2017-07-21T20:28:31.557Z,1.50
2017-07-21T20:30:59.029Z,1.27
2017-07-21T20:33:26.534Z,1.30
2017-07-21T20:35:53.995Z,1.33
2017-07-21T20:38:21.499Z,1.53
2017-07-21T20:40:49.058Z,1.40
2017-07-21T20:43:16.526Z,1.53
2017-07-21T20:45:44.001Z,1.53
2017-07-21T20:48:11.472Z,1.40
2017-07-21T20:50:38.942Z,1.47
2017-07-21T20:53:06.445Z,1.30
2017-07-21T20:55:33.963Z,1.33
2017-07-21T20:58:01.417Z,1.33
2017-07-21T21:00:28.890Z,1.47
2017-07-21T21:02:56.396Z,1.30
2017-07-21T21:05:23.866Z,1.40
2017-07-21T21:07:51.328Z,1.50
2017-07-21T21:10:18.788Z,1.40
2017-07-21T21:12:46.248Z,1.40
2017-07-21T21:15:13.707Z,1.40
2017-07-21T21:17:41.167Z,1.37
2017-07-21T21:20:08.669Z,1.30
2017-07-21T21:22:36.140Z,1.43
2017-07-21T21:25:03.605Z,1.27
2017-07-21T21:27:31.083Z,1.27
2017-07-21T21:29:58.596Z,1.50
2017-07-21T21:32:26.057Z,1.40
2017-07-21T21:34:53.548Z,1.40
2017-07-21T21:37:20.997Z,1.53
2017-07-21T21:39:48.448Z,1.10
2017-07-21T21:42:15.935Z,1.60
2017-07-21T21:44:43.392Z,1.43
2017-07-21T21:47:10.844Z,1.33
2017-07-21T21:49:38.303Z,1.40
2017-07-21T21:52:05.792Z,1.40
2017-07-21T21:54:33.253Z,1.50
2017-07-21T21:57:00.742Z,1.30
2017-07-21T21:59:28.195Z,1.30
2017-07-21T22:01:55.673Z,1.50
2017-07-21T22:04:23.135Z,1.30
2017-07-21T22:06:50.615Z,1.30
2017-07-21T22:09:18.153Z,1.40
2017-07-21T22:11:45.608Z,1.30
2017-07-21T22:14:13.113Z,1.50
2017-07-21T22:16:40.569Z,1.23
2017-07-21T22:19:08.050Z,1.20
2017-07-21T22:21:35.511Z,1.40
2017-07-21T22:24:03.018Z,1.60
2017-07-21T22:26:30.471Z,1.50
2017-07-21T22:28:57.927Z,1.53
2017-07-21T22:31:25.386Z,1.30
2017-07-21T22:33:52.850Z,1.30
2017-07-21T22:36:20.308Z,1.60
2017-07-21T22:38:47.763Z,1.33
2017-07-21T22:41:15.227Z,1.40
2017-07-21T22:43:42.697Z,1.37
2017-07-21T22:46:10.161Z,1.20
2017-07-21T22:48:37.613Z,1.60
2017-07-21T22:51:05.098Z,1.50
2017-07-21T22:53:32.557Z,1.20
2017-07-21T22:56:00.038Z,1.20
2017-07-21T22:58:27.501Z,1.47
2017-07-21T23:00:54.988Z,1.20
2017-07-21T23:03:22.431Z,1.40
2017-07-21T23:05:49.902Z,1.37
2017-07-21T23:08:17.357Z,1.43
2017-07-21T23:10:44.820Z,1.30
2017-07-21T23:13:12.299Z,1.43
2017-07-21T23:15:39.772Z,1.30
2017-07-21T23:18:07.228Z,1.57
2017-07-21T23:20:34.703Z,1.40
2017-07-21T23:23:02.186Z,1.70
2017-07-21T23:25:29.661Z,1.60
2017-07-21T23:27:57.170Z,1.33
2017-07-21T23:30:24.620Z,1.30
2017-07-21T23:32:52.060Z,1.33
2017-07-21T23:35:19.535Z,1.30
2017-07-21T23:37:47.001Z,1.20
2017-07-21T23:40:14.528Z,1.50
2017-07-21T23:42:41.971Z,1.23
2017-07-21T23:45:09.435Z,1.53
2017-07-21T23:47:36.892Z,1.67
2017-07-21T23:50:04.345Z,1.37
2017-07-21T23:52:31.841Z,1.23
2017-07-21T23:54:59.319Z,1.30
2017-07-21T23:57:26.764Z,1.30
2017-07-21T23:59:54.255Z,1.40
